KPRC/PRC METAR and TAF weather

Enter ICAO airport designator
Station Type Date Time Source
KPRC METAR 2019/04/22 19:53 UTC NOAA

KPRC 221953Z VRB05KT 10SM SCT100 19/M07 A2999 RMK AO2 SLP103 T01941072


Station Type Date Time Source
KPRC Decoded METAR 2019/04/22 19:53 UTC NOAA

PRESCOTT LOVE FIELD, AZ, United States (KPRC) 34-39N 112-25W 1524M
Apr 22, 2019 - 03:53 PM EDT / 2019.04.22 1953 UTC
Wind: Variable at 6 MPH (5 KT):0
Visibility: 10 mile(s):0
Sky conditions: partly cloudy
Temperature: 66.9 F (19.4 C)
Dew Point: 19.0 F (-7.2 C)
Relative Humidity: 15%
Pressure (altimeter): 29.99 in. Hg (1015 hPa)
ob: KPRC 221953Z VRB05KT 10SM SCT100 19/M07 A2999 RMK AO2 SLP103 T01941072
cycle: 20

Station Type Date Time Source
KPRC TAF 2019/04/22 18:39 UTC NOAA

TAF KPRC 221736Z 2218/2318 20005KT P6SM SKC
TEMPO 2218/2222 6SM -SHRA BKN060
FM230000 24007KT P6SM SCT080

Example: see airport list